sensor_id;sensor_type;location;lat;lon;timestamp;temperature;humidity
15483;DHT22;7843;50.330;7.312;2023-09-12T00:00:44;21.40;99.10
15483;DHT22;7843;50.330;7.312;2023-09-12T00:03:11;21.40;99.30
15483;DHT22;7843;50.330;7.312;2023-09-12T00:05:38;21.40;99.60
15483;DHT22;7843;50.330;7.312;2023-09-12T00:08:05;21.40;99.50
15483;DHT22;7843;50.330;7.312;2023-09-12T00:10:32;21.40;99.50
15483;DHT22;7843;50.330;7.312;2023-09-12T00:12:59;21.40;99.80
15483;DHT22;7843;50.330;7.312;2023-09-12T00:15:27;21.40;99.80
15483;DHT22;7843;50.330;7.312;2023-09-12T00:17:54;21.30;99.90
15483;DHT22;7843;50.330;7.312;2023-09-12T00:20:20;21.30;99.90
15483;DHT22;7843;50.330;7.312;2023-09-12T00:22:47;21.30;99.90
15483;DHT22;7843;50.330;7.312;2023-09-12T00:25:14;21.20;99.90
15483;DHT22;7843;50.330;7.312;2023-09-12T00:27:40;21.20;99.90
15483;DHT22;7843;50.330;7.312;2023-09-12T00:30:07;21.20;99.90
15483;DHT22;7843;50.330;7.312;2023-09-12T00:32:34;21.20;99.90
15483;DHT22;7843;50.330;7.312;2023-09-12T00:35:01;21.20;99.90
15483;DHT22;7843;50.330;7.312;2023-09-12T00:37:27;21.30;99.90
15483;DHT22;7843;50.330;7.312;2023-09-12T00:39:54;21.40;99.90
15483;DHT22;7843;50.330;7.312;2023-09-12T00:42:21;21.50;99.70
15483;DHT22;7843;50.330;7.312;2023-09-12T00:44:47;21.50;99.60
15483;DHT22;7843;50.330;7.312;2023-09-12T00:47:14;21.60;99.60
15483;DHT22;7843;50.330;7.312;2023-09-12T00:49:41;21.60;99.60
15483;DHT22;7843;50.330;7.312;2023-09-12T00:52:10;21.60;99.50
15483;DHT22;7843;50.330;7.312;2023-09-12T00:54:37;21.70;99.30
15483;DHT22;7843;50.330;7.312;2023-09-12T00:57:04;21.80;99.00
15483;DHT22;7843;50.330;7.312;2023-09-12T00:59:31;21.80;98.70
15483;DHT22;7843;50.330;7.312;2023-09-12T01:01:59;21.90;98.40
15483;DHT22;7843;50.330;7.312;2023-09-12T01:04:26;22.00;98.10
15483;DHT22;7843;50.330;7.312;2023-09-12T01:06:57;22.00;98.00
15483;DHT22;7843;50.330;7.312;2023-09-12T01:09:24;22.10;97.80
15483;DHT22;7843;50.330;7.312;2023-09-12T01:11:51;22.10;97.70
15483;DHT22;7843;50.330;7.312;2023-09-12T01:14:17;22.10;97.70
15483;DHT22;7843;50.330;7.312;2023-09-12T01:16:44;22.00;98.00
15483;DHT22;7843;50.330;7.312;2023-09-12T01:19:11;21.90;98.20
15483;DHT22;7843;50.330;7.312;2023-09-12T01:27:47;21.90;98.50
15483;DHT22;7843;50.330;7.312;2023-09-12T01:30:18;21.80;98.50
15483;DHT22;7843;50.330;7.312;2023-09-12T01:32:47;21.80;98.50
15483;DHT22;7843;50.330;7.312;2023-09-12T01:35:14;21.80;98.50
15483;DHT22;7843;50.330;7.312;2023-09-12T01:37:41;21.80;98.50
15483;DHT22;7843;50.330;7.312;2023-09-12T01:40:09;21.80;98.50
15483;DHT22;7843;50.330;7.312;2023-09-12T01:42:37;21.80;98.50
15483;DHT22;7843;50.330;7.312;2023-09-12T01:45:09;21.80;98.50
15483;DHT22;7843;50.330;7.312;2023-09-12T01:47:37;21.80;98.50
15483;DHT22;7843;50.330;7.312;2023-09-12T01:50:05;21.80;98.60
15483;DHT22;7843;50.330;7.312;2023-09-12T01:52:35;21.80;98.60
15483;DHT22;7843;50.330;7.312;2023-09-12T01:55:02;21.80;98.50
15483;DHT22;7843;50.330;7.312;2023-09-12T01:57:30;21.80;98.50
15483;DHT22;7843;50.330;7.312;2023-09-12T01:59:57;21.80;98.60
15483;DHT22;7843;50.330;7.312;2023-09-12T02:02:24;21.70;98.70
15483;DHT22;7843;50.330;7.312;2023-09-12T02:07:41;21.70;98.80
15483;DHT22;7843;50.330;7.312;2023-09-12T02:10:08;21.70;99.00
15483;DHT22;7843;50.330;7.312;2023-09-12T02:12:36;21.60;99.10
15483;DHT22;7843;50.330;7.312;2023-09-12T02:15:03;21.50;99.30
15483;DHT22;7843;50.330;7.312;2023-09-12T02:17:30;21.40;99.50
15483;DHT22;7843;50.330;7.312;2023-09-12T02:19:57;21.40;99.70
15483;DHT22;7843;50.330;7.312;2023-09-12T02:22:24;21.30;99.90
15483;DHT22;7843;50.330;7.312;2023-09-12T02:24:51;21.20;99.90
15483;DHT22;7843;50.330;7.312;2023-09-12T02:27:17;21.00;99.90
15483;DHT22;7843;50.330;7.312;2023-09-12T02:29:44;20.90;99.90
15483;DHT22;7843;50.330;7.312;2023-09-12T02:32:11;20.90;99.90
15483;DHT22;7843;50.330;7.312;2023-09-12T02:37:05;20.70;99.90
15483;DHT22;7843;50.330;7.312;2023-09-12T02:39:31;20.60;99.90
15483;DHT22;7843;50.330;7.312;2023-09-12T02:41:58;20.50;99.90
15483;DHT22;7843;50.330;7.312;2023-09-12T02:44:25;20.40;99.90
15483;DHT22;7843;50.330;7.312;2023-09-12T02:46:51;20.30;99.90
15483;DHT22;7843;50.330;7.312;2023-09-12T02:49:18;20.30;99.90
15483;DHT22;7843;50.330;7.312;2023-09-12T02:51:45;20.30;99.90
15483;DHT22;7843;50.330;7.312;2023-09-12T02:54:12;20.20;99.90
15483;DHT22;7843;50.330;7.312;2023-09-12T02:56:39;20.10;99.90
15483;DHT22;7843;50.330;7.312;2023-09-12T02:59:05;20.10;99.90
15483;DHT22;7843;50.330;7.312;2023-09-12T03:01:32;20.10;99.90
15483;DHT22;7843;50.330;7.312;2023-09-12T03:03:59;20.00;99.90
15483;DHT22;7843;50.330;7.312;2023-09-12T03:06:26;19.90;99.90
15483;DHT22;7843;50.330;7.312;2023-09-12T03:08:52;19.90;99.90
15483;DHT22;7843;50.330;7.312;2023-09-12T03:11:19;19.80;99.90
15483;DHT22;7843;50.330;7.312;2023-09-12T03:13:46;19.80;99.90
15483;DHT22;7843;50.330;7.312;2023-09-12T03:16:13;19.80;99.90
15483;DHT22;7843;50.330;7.312;2023-09-12T03:18:41;19.80;99.90
15483;DHT22;7843;50.330;7.312;2023-09-12T03:21:07;19.80;99.90
15483;DHT22;7843;50.330;7.312;2023-09-12T03:23:34;19.70;99.90
15483;DHT22;7843;50.330;7.312;2023-09-12T03:26:05;19.70;99.90
15483;DHT22;7843;50.330;7.312;2023-09-12T03:31:10;19.60;99.90
15483;DHT22;7843;50.330;7.312;2023-09-12T03:33:41;19.60;99.90
15483;DHT22;7843;50.330;7.312;2023-09-12T03:36:09;19.60;99.90
15483;DHT22;7843;50.330;7.312;2023-09-12T03:38:36;19.50;99.90
15483;DHT22;7843;50.330;7.312;2023-09-12T03:41:03;19.50;99.90
15483;DHT22;7843;50.330;7.312;2023-09-12T03:43:30;19.40;99.90
15483;DHT22;7843;50.330;7.312;2023-09-12T03:45:57;19.40;99.90
15483;DHT22;7843;50.330;7.312;2023-09-12T03:48:24;19.40;99.90
15483;DHT22;7843;50.330;7.312;2023-09-12T03:50:51;19.40;99.90
15483;DHT22;7843;50.330;7.312;2023-09-12T03:53:18;19.40;99.90
15483;DHT22;7843;50.330;7.312;2023-09-12T03:55:44;19.40;99.90
15483;DHT22;7843;50.330;7.312;2023-09-12T03:58:11;19.40;99.90
15483;DHT22;7843;50.330;7.312;2023-09-12T04:00:38;19.50;99.90
15483;DHT22;7843;50.330;7.312;2023-09-12T04:03:05;19.50;99.90
15483;DHT22;7843;50.330;7.312;2023-09-12T04:05:31;19.50;99.90
15483;DHT22;7843;50.330;7.312;2023-09-12T04:07:58;19.40;99.90
15483;DHT22;7843;50.330;7.312;2023-09-12T04:10:25;19.40;99.90
15483;DHT22;7843;50.330;7.312;2023-09-12T04:12:52;19.40;99.90
15483;DHT22;7843;50.330;7.312;2023-09-12T04:15:18;19.40;99.90
15483;DHT22;7843;50.330;7.312;2023-09-12T04:17:45;19.50;99.90
15483;DHT22;7843;50.330;7.312;2023-09-12T04:20:12;19.50;99.90
15483;DHT22;7843;50.330;7.312;2023-09-12T04:22:42;19.50;99.90
15483;DHT22;7843;50.330;7.312;2023-09-12T04:25:09;19.60;99.90
15483;DHT22;7843;50.330;7.312;2023-09-12T04:27:36;19.60;99.90
15483;DHT22;7843;50.330;7.312;2023-09-12T04:30:03;19.60;99.90
15483;DHT22;7843;50.330;7.312;2023-09-12T04:32:30;19.60;99.90
15483;DHT22;7843;50.330;7.312;2023-09-12T04:34:57;19.50;99.90
15483;DHT22;7843;50.330;7.312;2023-09-12T04:37:23;19.50;99.90
15483;DHT22;7843;50.330;7.312;2023-09-12T04:39:50;19.40;99.90
15483;DHT22;7843;50.330;7.312;2023-09-12T04:42:17;19.30;99.90
15483;DHT22;7843;50.330;7.312;2023-09-12T04:44:43;19.20;99.90
15483;DHT22;7843;50.330;7.312;2023-09-12T04:47:10;19.20;99.90
15483;DHT22;7843;50.330;7.312;2023-09-12T04:52:04;19.00;99.90
15483;DHT22;7843;50.330;7.312;2023-09-12T04:54:31;19.00;99.90
15483;DHT22;7843;50.330;7.312;2023-09-12T04:56:58;19.00;99.90
15483;DHT22;7843;50.330;7.312;2023-09-12T04:59:24;19.00;99.90
15483;DHT22;7843;50.330;7.312;2023-09-12T05:01:51;19.00;99.90
15483;DHT22;7843;50.330;7.312;2023-09-12T05:04:18;19.00;99.90
15483;DHT22;7843;50.330;7.312;2023-09-12T05:06:45;18.90;99.90
15483;DHT22;7843;50.330;7.312;2023-09-12T05:09:11;18.80;99.90
15483;DHT22;7843;50.330;7.312;2023-09-12T05:11:38;18.80;99.90
15483;DHT22;7843;50.330;7.312;2023-09-12T05:14:05;18.70;99.90
15483;DHT22;7843;50.330;7.312;2023-09-12T05:16:32;18.70;99.90
15483;DHT22;7843;50.330;7.312;2023-09-12T05:18:58;18.60;99.90
15483;DHT22;7843;50.330;7.312;2023-09-12T05:21:25;18.70;99.90
15483;DHT22;7843;50.330;7.312;2023-09-12T05:23:52;18.60;99.90
15483;DHT22;7843;50.330;7.312;2023-09-12T05:26:19;18.70;99.90
15483;DHT22;7843;50.330;7.312;2023-09-12T05:28:46;18.70;99.90
15483;DHT22;7843;50.330;7.312;2023-09-12T05:33:40;18.60;99.90
15483;DHT22;7843;50.330;7.312;2023-09-12T05:36:06;18.70;99.90
15483;DHT22;7843;50.330;7.312;2023-09-12T05:38:33;18.70;99.90
15483;DHT22;7843;50.330;7.312;2023-09-12T05:41:00;18.70;99.90
15483;DHT22;7843;50.330;7.312;2023-09-12T05:43:26;18.80;99.90
15483;DHT22;7843;50.330;7.312;2023-09-12T05:45:53;18.80;99.90
15483;DHT22;7843;50.330;7.312;2023-09-12T05:48:20;18.90;99.90
15483;DHT22;7843;50.330;7.312;2023-09-12T05:50:47;18.90;99.90
15483;DHT22;7843;50.330;7.312;2023-09-12T05:53:14;18.90;99.90
15483;DHT22;7843;50.330;7.312;2023-09-12T05:55:41;18.90;99.90
15483;DHT22;7843;50.330;7.312;2023-09-12T05:58:07;19.00;99.90
15483;DHT22;7843;50.330;7.312;2023-09-12T06:00:34;18.90;99.90
15483;DHT22;7843;50.330;7.312;2023-09-12T06:03:01;19.00;99.90
15483;DHT22;7843;50.330;7.312;2023-09-12T06:05:28;19.00;99.90
15483;DHT22;7843;50.330;7.312;2023-09-12T06:07:55;19.00;99.90
15483;DHT22;7843;50.330;7.312;2023-09-12T06:10:21;19.00;99.90
15483;DHT22;7843;50.330;7.312;2023-09-12T06:12:48;19.00;99.90
15483;DHT22;7843;50.330;7.312;2023-09-12T06:15:16;19.00;99.90
15483;DHT22;7843;50.330;7.312;2023-09-12T06:17:43;19.00;99.90
15483;DHT22;7843;50.330;7.312;2023-09-12T06:20:10;19.00;99.90
15483;DHT22;7843;50.330;7.312;2023-09-12T06:22:37;19.10;99.90
15483;DHT22;7843;50.330;7.312;2023-09-12T06:25:03;19.20;99.90
15483;DHT22;7843;50.330;7.312;2023-09-12T06:27:30;19.30;99.90
15483;DHT22;7843;50.330;7.312;2023-09-12T06:29:58;19.30;99.90
15483;DHT22;7843;50.330;7.312;2023-09-12T06:32:24;19.40;99.90
15483;DHT22;7843;50.330;7.312;2023-09-12T06:34:51;19.50;99.90
15483;DHT22;7843;50.330;7.312;2023-09-12T06:37:18;19.50;99.90
15483;DHT22;7843;50.330;7.312;2023-09-12T06:39:45;19.60;99.90
15483;DHT22;7843;50.330;7.312;2023-09-12T06:42:11;19.60;99.90
15483;DHT22;7843;50.330;7.312;2023-09-12T06:44:38;19.60;99.90
15483;DHT22;7843;50.330;7.312;2023-09-12T06:47:05;19.70;99.90
15483;DHT22;7843;50.330;7.312;2023-09-12T06:49:32;19.80;99.90
15483;DHT22;7843;50.330;7.312;2023-09-12T06:52:00;19.90;99.90
15483;DHT22;7843;50.330;7.312;2023-09-12T06:54:27;19.90;99.90
15483;DHT22;7843;50.330;7.312;2023-09-12T06:56:53;20.00;99.90
15483;DHT22;7843;50.330;7.312;2023-09-12T06:59:20;20.10;99.90
15483;DHT22;7843;50.330;7.312;2023-09-12T07:01:47;20.20;99.90
15483;DHT22;7843;50.330;7.312;2023-09-12T07:04:14;20.20;99.90
15483;DHT22;7843;50.330;7.312;2023-09-12T07:06:41;20.30;99.90
15483;DHT22;7843;50.330;7.312;2023-09-12T07:09:09;20.30;99.90
15483;DHT22;7843;50.330;7.312;2023-09-12T07:11:37;20.40;99.90
15483;DHT22;7843;50.330;7.312;2023-09-12T07:14:04;20.50;99.90
15483;DHT22;7843;50.330;7.312;2023-09-12T07:16:32;20.50;99.90
15483;DHT22;7843;50.330;7.312;2023-09-12T07:18:59;20.50;99.90
15483;DHT22;7843;50.330;7.312;2023-09-12T07:21:25;20.60;99.90
15483;DHT22;7843;50.330;7.312;2023-09-12T07:23:52;20.70;99.90
15483;DHT22;7843;50.330;7.312;2023-09-12T07:26:19;20.70;99.90
15483;DHT22;7843;50.330;7.312;2023-09-12T07:28:45;20.80;99.90
15483;DHT22;7843;50.330;7.312;2023-09-12T07:31:12;20.90;99.90
15483;DHT22;7843;50.330;7.312;2023-09-12T07:33:39;20.90;99.90
15483;DHT22;7843;50.330;7.312;2023-09-12T07:36:06;21.00;99.90
15483;DHT22;7843;50.330;7.312;2023-09-12T07:38:33;21.10;99.90
15483;DHT22;7843;50.330;7.312;2023-09-12T07:41:01;21.20;99.90
15483;DHT22;7843;50.330;7.312;2023-09-12T07:43:29;21.30;99.90
15483;DHT22;7843;50.330;7.312;2023-09-12T07:45:57;21.40;99.90
15483;DHT22;7843;50.330;7.312;2023-09-12T07:48:24;21.40;99.90
15483;DHT22;7843;50.330;7.312;2023-09-12T07:50:51;21.50;99.90
15483;DHT22;7843;50.330;7.312;2023-09-12T07:53:18;21.60;99.90
15483;DHT22;7843;50.330;7.312;2023-09-12T07:55:45;21.60;99.90
15483;DHT22;7843;50.330;7.312;2023-09-12T07:58:16;21.70;99.90
15483;DHT22;7843;50.330;7.312;2023-09-12T08:00:47;21.70;99.90
15483;DHT22;7843;50.330;7.312;2023-09-12T08:03:14;21.70;99.90
15483;DHT22;7843;50.330;7.312;2023-09-12T08:05:41;21.80;99.90
15483;DHT22;7843;50.330;7.312;2023-09-12T08:08:08;22.00;99.90
15483;DHT22;7843;50.330;7.312;2023-09-12T08:10:35;22.00;99.40
15483;DHT22;7843;50.330;7.312;2023-09-12T08:13:02;22.10;99.40
15483;DHT22;7843;50.330;7.312;2023-09-12T08:15:28;22.20;99.20
15483;DHT22;7843;50.330;7.312;2023-09-12T08:17:55;22.20;98.50
15483;DHT22;7843;50.330;7.312;2023-09-12T08:20:22;22.20;99.00
15483;DHT22;7843;50.330;7.312;2023-09-12T08:22:49;22.20;98.80
15483;DHT22;7843;50.330;7.312;2023-09-12T08:25:16;22.20;98.50
15483;DHT22;7843;50.330;7.312;2023-09-12T08:30:11;22.30;98.80
15483;DHT22;7843;50.330;7.312;2023-09-12T08:32:39;22.50;98.70
15483;DHT22;7843;50.330;7.312;2023-09-12T08:35:13;22.60;98.50
15483;DHT22;7843;50.330;7.312;2023-09-12T08:37:41;22.70;98.20
15483;DHT22;7843;50.330;7.312;2023-09-12T08:40:09;22.90;98.00
15483;DHT22;7843;50.330;7.312;2023-09-12T08:42:42;22.90;97.20
15483;DHT22;7843;50.330;7.312;2023-09-12T08:45:14;23.00;97.30
15483;DHT22;7843;50.330;7.312;2023-09-12T08:47:46;23.10;96.70
15483;DHT22;7843;50.330;7.312;2023-09-12T08:50:14;23.20;96.80
15483;DHT22;7843;50.330;7.312;2023-09-12T08:52:43;23.20;96.40
15483;DHT22;7843;50.330;7.312;2023-09-12T08:55:17;23.40;95.70
15483;DHT22;7843;50.330;7.312;2023-09-12T08:57:47;23.50;95.50
15483;DHT22;7843;50.330;7.312;2023-09-12T09:00:15;23.70;95.20
15483;DHT22;7843;50.330;7.312;2023-09-12T09:02:42;23.80;94.40
15483;DHT22;7843;50.330;7.312;2023-09-12T09:05:11;23.80;94.20
15483;DHT22;7843;50.330;7.312;2023-09-12T09:07:39;23.90;93.50
15483;DHT22;7843;50.330;7.312;2023-09-12T09:10:08;23.90;94.10
15483;DHT22;7843;50.330;7.312;2023-09-12T09:12:35;24.10;93.80
15483;DHT22;7843;50.330;7.312;2023-09-12T09:15:26;24.10;92.90
15483;DHT22;7843;50.330;7.312;2023-09-12T09:17:55;24.20;93.50
15483;DHT22;7843;50.330;7.312;2023-09-12T09:20:29;24.20;93.60
15483;DHT22;7843;50.330;7.312;2023-09-12T09:25:23;24.40;93.10
15483;DHT22;7843;50.330;7.312;2023-09-12T09:27:50;24.40;92.50
15483;DHT22;7843;50.330;7.312;2023-09-12T09:30:16;24.50;92.20
15483;DHT22;7843;50.330;7.312;2023-09-12T09:32:45;24.60;91.90
15483;DHT22;7843;50.330;7.312;2023-09-12T09:35:13;24.70;91.60
15483;DHT22;7843;50.330;7.312;2023-09-12T09:37:41;24.80;91.60
15483;DHT22;7843;50.330;7.312;2023-09-12T09:40:08;24.80;91.40
15483;DHT22;7843;50.330;7.312;2023-09-12T09:42:37;24.90;91.70
15483;DHT22;7843;50.330;7.312;2023-09-12T09:45:05;25.00;91.00
15483;DHT22;7843;50.330;7.312;2023-09-12T09:47:32;25.00;91.20
15483;DHT22;7843;50.330;7.312;2023-09-12T09:49:59;25.10;90.80
15483;DHT22;7843;50.330;7.312;2023-09-12T09:52:26;25.10;90.30
15483;DHT22;7843;50.330;7.312;2023-09-12T09:54:55;25.20;91.00
15483;DHT22;7843;50.330;7.312;2023-09-12T09:57:25;25.30;90.50
15483;DHT22;7843;50.330;7.312;2023-09-12T09:59:52;25.40;90.10
15483;DHT22;7843;50.330;7.312;2023-09-12T10:02:21;25.50;90.00
15483;DHT22;7843;50.330;7.312;2023-09-12T10:04:51;25.50;89.40
15483;DHT22;7843;50.330;7.312;2023-09-12T10:07:26;25.50;89.10
15483;DHT22;7843;50.330;7.312;2023-09-12T10:09:54;25.60;88.20
15483;DHT22;7843;50.330;7.312;2023-09-12T10:12:21;25.60;88.10
15483;DHT22;7843;50.330;7.312;2023-09-12T10:14:49;25.60;87.90
15483;DHT22;7843;50.330;7.312;2023-09-12T10:17:19;25.70;88.40
15483;DHT22;7843;50.330;7.312;2023-09-12T10:19:55;25.70;88.20
15483;DHT22;7843;50.330;7.312;2023-09-12T10:22:29;25.80;87.70
15483;DHT22;7843;50.330;7.312;2023-09-12T10:24:59;25.90;88.20
15483;DHT22;7843;50.330;7.312;2023-09-12T10:27:27;26.10;87.80
15483;DHT22;7843;50.330;7.312;2023-09-12T10:29:55;26.10;87.40
15483;DHT22;7843;50.330;7.312;2023-09-12T10:32:26;26.10;87.10
15483;DHT22;7843;50.330;7.312;2023-09-12T10:34:58;26.20;87.40
15483;DHT22;7843;50.330;7.312;2023-09-12T10:37:26;26.20;87.70
15483;DHT22;7843;50.330;7.312;2023-09-12T10:39:53;26.30;87.70
15483;DHT22;7843;50.330;7.312;2023-09-12T10:42:20;26.50;87.70
15483;DHT22;7843;50.330;7.312;2023-09-12T10:44:49;26.60;86.20
15483;DHT22;7843;50.330;7.312;2023-09-12T10:47:17;26.60;85.70
15483;DHT22;7843;50.330;7.312;2023-09-12T10:49:44;26.70;85.90
15483;DHT22;7843;50.330;7.312;2023-09-12T10:52:24;26.80;85.40
15483;DHT22;7843;50.330;7.312;2023-09-12T10:54:51;26.80;85.70
15483;DHT22;7843;50.330;7.312;2023-09-12T10:57:19;26.90;85.20
15483;DHT22;7843;50.330;7.312;2023-09-12T11:02:34;27.10;85.20
15483;DHT22;7843;50.330;7.312;2023-09-12T11:05:03;27.10;85.00
15483;DHT22;7843;50.330;7.312;2023-09-12T11:12:46;27.10;86.30
15483;DHT22;7843;50.330;7.312;2023-09-12T11:15:13;27.00;86.30
15483;DHT22;7843;50.330;7.312;2023-09-12T11:17:46;26.90;85.90
15483;DHT22;7843;50.330;7.312;2023-09-12T11:20:14;26.90;86.10
15483;DHT22;7843;50.330;7.312;2023-09-12T11:22:46;26.70;86.40
15483;DHT22;7843;50.330;7.312;2023-09-12T11:25:23;26.50;86.60
15483;DHT22;7843;50.330;7.312;2023-09-12T11:30:26;26.30;87.70
15483;DHT22;7843;50.330;7.312;2023-09-12T11:32:59;26.30;88.20
15483;DHT22;7843;50.330;7.312;2023-09-12T11:35:30;26.30;88.20
15483;DHT22;7843;50.330;7.312;2023-09-12T11:38:02;26.40;87.90
15483;DHT22;7843;50.330;7.312;2023-09-12T11:42:59;26.50;87.70
15483;DHT22;7843;50.330;7.312;2023-09-12T11:45:27;26.40;87.60
15483;DHT22;7843;50.330;7.312;2023-09-12T11:47:54;26.40;87.50
15483;DHT22;7843;50.330;7.312;2023-09-12T11:50:34;26.20;87.50
15483;DHT22;7843;50.330;7.312;2023-09-12T11:53:08;26.30;88.00
15483;DHT22;7843;50.330;7.312;2023-09-12T11:55:46;26.50;87.60
15483;DHT22;7843;50.330;7.312;2023-09-12T11:58:15;26.70;87.00
15483;DHT22;7843;50.330;7.312;2023-09-12T12:00:51;26.90;86.60
15483;DHT22;7843;50.330;7.312;2023-09-12T12:03:22;26.90;86.10
15483;DHT22;7843;50.330;7.312;2023-09-12T12:05:49;27.00;86.60
15483;DHT22;7843;50.330;7.312;2023-09-12T12:08:17;27.20;86.10
15483;DHT22;7843;50.330;7.312;2023-09-12T12:10:50;27.20;86.10
15483;DHT22;7843;50.330;7.312;2023-09-12T12:13:19;27.10;86.30
15483;DHT22;7843;50.330;7.312;2023-09-12T12:15:46;26.90;86.50
15483;DHT22;7843;50.330;7.312;2023-09-12T12:18:13;26.70;86.10
15483;DHT22;7843;50.330;7.312;2023-09-12T12:20:40;26.50;87.00
15483;DHT22;7843;50.330;7.312;2023-09-12T12:23:07;26.30;87.70
15483;DHT22;7843;50.330;7.312;2023-09-12T12:25:34;26.30;87.80
15483;DHT22;7843;50.330;7.312;2023-09-12T12:28:02;26.20;87.90
15483;DHT22;7843;50.330;7.312;2023-09-12T12:30:34;26.10;88.60
15483;DHT22;7843;50.330;7.312;2023-09-12T12:33:06;26.00;88.80
15483;DHT22;7843;50.330;7.312;2023-09-12T12:35:33;26.10;88.50
15483;DHT22;7843;50.330;7.312;2023-09-12T12:38:00;26.00;88.60
15483;DHT22;7843;50.330;7.312;2023-09-12T12:40:31;26.00;88.50
15483;DHT22;7843;50.330;7.312;2023-09-12T12:43:04;25.90;88.70
15483;DHT22;7843;50.330;7.312;2023-09-12T12:45:31;25.80;88.50
15483;DHT22;7843;50.330;7.312;2023-09-12T12:47:59;25.80;89.10
15483;DHT22;7843;50.330;7.312;2023-09-12T12:50:26;25.80;89.00
15483;DHT22;7843;50.330;7.312;2023-09-12T12:52:53;25.90;89.50
15483;DHT22;7843;50.330;7.312;2023-09-12T12:55:21;26.10;88.90
15483;DHT22;7843;50.330;7.312;2023-09-12T12:57:48;26.70;87.90
15483;DHT22;7843;50.330;7.312;2023-09-12T13:00:16;27.50;86.10
15483;DHT22;7843;50.330;7.312;2023-09-12T13:02:44;28.20;83.60
15483;DHT22;7843;50.330;7.312;2023-09-12T13:05:23;28.50;81.80
15483;DHT22;7843;50.330;7.312;2023-09-12T13:07:50;28.50;82.20
15483;DHT22;7843;50.330;7.312;2023-09-12T13:10:18;28.40;81.80
15483;DHT22;7843;50.330;7.312;2023-09-12T13:12:46;28.50;82.10
15483;DHT22;7843;50.330;7.312;2023-09-12T13:15:15;28.60;82.20
15483;DHT22;7843;50.330;7.312;2023-09-12T13:17:42;28.80;81.40
15483;DHT22;7843;50.330;7.312;2023-09-12T13:20:10;29.30;80.10
15483;DHT22;7843;50.330;7.312;2023-09-12T13:22:37;29.70;78.30
15483;DHT22;7843;50.330;7.312;2023-09-12T13:25:05;30.00;78.30
15483;DHT22;7843;50.330;7.312;2023-09-12T13:27:32;30.40;77.90
15483;DHT22;7843;50.330;7.312;2023-09-12T13:29:59;30.60;76.50
15483;DHT22;7843;50.330;7.312;2023-09-12T13:32:26;30.80;76.10
15483;DHT22;7843;50.330;7.312;2023-09-12T13:34:53;30.90;76.00
15483;DHT22;7843;50.330;7.312;2023-09-12T13:37:20;30.90;75.00
15483;DHT22;7843;50.330;7.312;2023-09-12T13:39:47;30.30;75.90
15483;DHT22;7843;50.330;7.312;2023-09-12T13:42:16;30.00;76.60
15483;DHT22;7843;50.330;7.312;2023-09-12T13:44:49;29.60;77.70
15483;DHT22;7843;50.330;7.312;2023-09-12T13:47:16;29.30;78.00
15483;DHT22;7843;50.330;7.312;2023-09-12T13:49:49;28.90;79.30
15483;DHT22;7843;50.330;7.312;2023-09-12T13:52:20;28.60;80.00
15483;DHT22;7843;50.330;7.312;2023-09-12T13:54:47;28.30;81.30
15483;DHT22;7843;50.330;7.312;2023-09-12T13:57:16;28.00;81.80
15483;DHT22;7843;50.330;7.312;2023-09-12T13:59:43;27.80;82.40
15483;DHT22;7843;50.330;7.312;2023-09-12T14:02:11;27.70;82.80
15483;DHT22;7843;50.330;7.312;2023-09-12T14:04:38;27.70;83.20
15483;DHT22;7843;50.330;7.312;2023-09-12T14:07:07;27.80;82.40
15483;DHT22;7843;50.330;7.312;2023-09-12T14:09:34;27.70;83.20
15483;DHT22;7843;50.330;7.312;2023-09-12T14:12:00;27.80;83.20
15483;DHT22;7843;50.330;7.312;2023-09-12T14:14:27;27.70;82.80
15483;DHT22;7843;50.330;7.312;2023-09-12T14:16:54;27.60;83.20
15483;DHT22;7843;50.330;7.312;2023-09-12T14:19:21;27.40;83.70
15483;DHT22;7843;50.330;7.312;2023-09-12T14:21:48;27.30;84.40
15483;DHT22;7843;50.330;7.312;2023-09-12T14:24:15;27.30;84.10
15483;DHT22;7843;50.330;7.312;2023-09-12T14:26:42;27.20;83.80
15483;DHT22;7843;50.330;7.312;2023-09-12T14:29:09;27.10;84.20
15483;DHT22;7843;50.330;7.312;2023-09-12T14:31:37;27.30;84.20
15483;DHT22;7843;50.330;7.312;2023-09-12T14:34:04;27.90;82.50
15483;DHT22;7843;50.330;7.312;2023-09-12T14:36:32;28.50;82.00
15483;DHT22;7843;50.330;7.312;2023-09-12T14:38:59;28.80;80.90
15483;DHT22;7843;50.330;7.312;2023-09-12T14:41:26;29.00;81.40
15483;DHT22;7843;50.330;7.312;2023-09-12T14:43:52;28.90;81.10
15483;DHT22;7843;50.330;7.312;2023-09-12T14:46:19;28.90;81.10
15483;DHT22;7843;50.330;7.312;2023-09-12T14:48:46;29.10;79.60
15483;DHT22;7843;50.330;7.312;2023-09-12T14:51:21;28.80;80.00
15483;DHT22;7843;50.330;7.312;2023-09-12T14:53:54;28.60;80.70
15483;DHT22;7843;50.330;7.312;2023-09-12T14:56:20;28.80;80.30
15483;DHT22;7843;50.330;7.312;2023-09-12T14:58:47;29.20;77.80
15483;DHT22;7843;50.330;7.312;2023-09-12T15:01:14;29.00;78.60
15483;DHT22;7843;50.330;7.312;2023-09-12T15:03:40;29.40;78.00
15483;DHT22;7843;50.330;7.312;2023-09-12T15:06:07;29.80;75.90
15483;DHT22;7843;50.330;7.312;2023-09-12T15:08:34;29.80;76.60
15483;DHT22;7843;50.330;7.312;2023-09-12T15:11:03;29.60;76.70
15483;DHT22;7843;50.330;7.312;2023-09-12T15:13:30;29.10;77.20
15483;DHT22;7843;50.330;7.312;2023-09-12T15:15:57;28.60;78.70
15483;DHT22;7843;50.330;7.312;2023-09-12T15:18:24;28.40;78.90
15483;DHT22;7843;50.330;7.312;2023-09-12T15:20:52;28.30;79.60
15483;DHT22;7843;50.330;7.312;2023-09-12T15:23:19;28.20;80.10
15483;DHT22;7843;50.330;7.312;2023-09-12T15:25:49;28.00;80.60
15483;DHT22;7843;50.330;7.312;2023-09-12T15:28:16;27.80;81.30
15483;DHT22;7843;50.330;7.312;2023-09-12T15:30:43;27.50;81.90
15483;DHT22;7843;50.330;7.312;2023-09-12T15:33:10;27.20;81.50
15483;DHT22;7843;50.330;7.312;2023-09-12T15:35:37;26.70;82.20
15483;DHT22;7843;50.330;7.312;2023-09-12T15:38:05;26.50;83.90
15483;DHT22;7843;50.330;7.312;2023-09-12T15:40:35;26.30;83.60
15483;DHT22;7843;50.330;7.312;2023-09-12T15:43:02;26.20;84.60
15483;DHT22;7843;50.330;7.312;2023-09-12T15:45:37;26.10;84.60
15483;DHT22;7843;50.330;7.312;2023-09-12T15:48:11;25.90;84.70
15483;DHT22;7843;50.330;7.312;2023-09-12T15:50:38;25.90;84.90
15483;DHT22;7843;50.330;7.312;2023-09-12T15:53:05;25.70;85.50
15483;DHT22;7843;50.330;7.312;2023-09-12T15:55:32;25.70;85.70
15483;DHT22;7843;50.330;7.312;2023-09-12T15:57:58;25.60;86.70
15483;DHT22;7843;50.330;7.312;2023-09-12T16:00:25;25.60;86.30
15483;DHT22;7843;50.330;7.312;2023-09-12T16:05:20;25.60;86.90
15483;DHT22;7843;50.330;7.312;2023-09-12T16:07:47;25.50;87.00
15483;DHT22;7843;50.330;7.312;2023-09-12T16:10:14;25.50;87.00
15483;DHT22;7843;50.330;7.312;2023-09-12T16:12:41;25.50;86.90
15483;DHT22;7843;50.330;7.312;2023-09-12T16:15:09;25.40;87.30
15483;DHT22;7843;50.330;7.312;2023-09-12T16:17:36;25.30;87.90
15483;DHT22;7843;50.330;7.312;2023-09-12T16:20:09;25.30;88.10
15483;DHT22;7843;50.330;7.312;2023-09-12T16:22:40;25.20;88.50
15483;DHT22;7843;50.330;7.312;2023-09-12T16:25:07;25.10;88.40
15483;DHT22;7843;50.330;7.312;2023-09-12T16:27:35;25.00;88.30